EGPN/DND METAR and TAF weather

Enter ICAO airport designator
Station Type Date Time Source
EGPN METAR 2022/06/27 07:50 UTC NOAA

EGPN 270750Z 24006KT 9999 FEW025 SCT040 15/10 Q1008


Station Type Date Time Source
EGPN Decoded METAR 2022/06/27 07:50 UTC NOAA

Dundee / Riverside, United Kingdom (EGPN) 56-27N 003-01W
Jun 27, 2022 - 03:50 AM EDT / 2022.06.27 0750 UTC
Wind: from the WSW (240 degrees) at 7 MPH (6 KT):0
Visibility: greater than 7 mile(s):0
Sky conditions: partly cloudy
Temperature: 59 F (15 C)
Dew Point: 50 F (10 C)
Relative Humidity: 72%
Pressure (altimeter): 29.77 in. Hg (1008 hPa)
ob: EGPN 270750Z 24006KT 9999 FEW025 SCT040 15/10 Q1008
cycle: 8

Station Type Date Time Source
EGPN TAF 2022/02/20 18:37 UTC NOAA

TAF EGPN 201733Z 2018/2121 CNL

Example: see airport list